Aviation Digital Data Service (ADDS)

Output produced by METARs form (1009 UTC 04 December 2016)
found at http://aviationweather.gov/adds/metars/
 
KPVD 040912Z 0409/0506 32006KT P6SM BKN040 
     FM041500 34010KT P6SM SCT040 
     FM042100 33005KT P6SM FEW250